createdAt,value
2023-01-23T00:00:57.639Z,73.17
2023-01-23T00:03:25.705Z,73.59
2023-01-23T00:06:04.889Z,74.18
2023-01-23T00:08:33.532Z,74.51
2023-01-23T00:11:04.727Z,74.46
2023-01-23T00:13:33.251Z,73.74
2023-01-23T00:16:06.861Z,73.57
2023-01-23T00:18:34.920Z,72.94
2023-01-23T00:21:07.388Z,72.51
2023-01-23T00:23:35.654Z,72.11
2023-01-23T00:26:07.567Z,71.28
2023-01-23T00:28:35.622Z,70.88
2023-01-23T00:31:04.867Z,70.10
2023-01-23T00:33:33.496Z,70.48
2023-01-23T00:36:02.017Z,70.67
2023-01-23T00:38:32.420Z,70.50
2023-01-23T00:41:02.326Z,70.97
2023-01-23T00:43:30.878Z,69.45
2023-01-23T00:45:59.623Z,70.77
2023-01-23T00:48:27.842Z,71.30
2023-01-23T00:50:55.746Z,71.66
2023-01-23T00:53:24.194Z,71.72
2023-01-23T00:55:53.556Z,71.91
2023-01-23T00:58:21.761Z,70.92
2023-01-23T01:00:50.447Z,71.15
2023-01-23T01:03:20.692Z,70.93
2023-01-23T01:05:48.949Z,70.73
2023-01-23T01:08:17.330Z,70.83
2023-01-23T01:10:45.369Z,71.24
2023-01-23T01:13:13.334Z,70.94
2023-01-23T01:15:41.333Z,71.01
2023-01-23T01:18:10.364Z,71.66
2023-01-23T01:20:40.581Z,71.00
2023-01-23T01:23:08.825Z,70.92
2023-01-23T01:25:36.886Z,70.73
2023-01-23T01:28:05.578Z,69.89
2023-01-23T01:30:33.860Z,71.48
2023-01-23T01:33:01.857Z,72.28
2023-01-23T01:35:30.127Z,72.19
2023-01-23T01:37:58.357Z,73.47
2023-01-23T01:40:28.888Z,73.62
2023-01-23T01:42:58.350Z,75.11
2023-01-23T01:45:45.099Z,74.81
2023-01-23T01:48:13.532Z,74.17
2023-01-23T01:50:41.652Z,74.32
2023-01-23T01:53:10.867Z,73.61
2023-01-23T01:55:39.747Z,74.53
2023-01-23T01:58:08.500Z,73.63
2023-01-23T02:00:36.784Z,72.11
2023-01-23T02:03:04.968Z,72.02
2023-01-23T02:05:39.399Z,71.63
2023-01-23T02:08:20.363Z,71.23
2023-01-23T02:10:48.906Z,69.71
2023-01-23T02:13:26.124Z,70.30
2023-01-23T02:15:54.352Z,71.87
2023-01-23T02:18:22.899Z,72.68
2023-01-23T02:20:51.985Z,73.92
2023-01-23T02:23:24.452Z,72.38
2023-01-23T02:25:58.976Z,71.93
2023-01-23T02:28:45.595Z,70.68
2023-01-23T02:31:15.327Z,70.69
2023-01-23T02:33:45.405Z,71.15
2023-01-23T02:36:13.933Z,70.50
2023-01-23T02:39:02.263Z,70.98
2023-01-23T02:41:35.320Z,72.38
2023-01-23T02:44:07.302Z,74.61
2023-01-23T02:46:35.450Z,74.69
2023-01-23T02:49:04.850Z,73.71
2023-01-23T02:51:32.937Z,73.54
2023-01-23T02:54:01.075Z,73.20
2023-01-23T02:56:29.761Z,72.39
2023-01-23T02:59:16.604Z,71.57
2023-01-23T03:01:44.703Z,71.56
2023-01-23T03:04:12.837Z,70.58
2023-01-23T03:06:40.775Z,70.20
2023-01-23T03:09:11.257Z,70.26
2023-01-23T03:11:41.196Z,69.73
2023-01-23T03:14:14.333Z,69.69
2023-01-23T03:16:43.146Z,69.61
2023-01-23T03:19:12.782Z,68.74
2023-01-23T03:21:41.408Z,68.31
2023-01-23T03:24:11.019Z,70.00
2023-01-23T03:26:41.452Z,70.57
2023-01-23T03:29:35.489Z,71.72
2023-01-23T03:32:04.720Z,73.06
2023-01-23T03:34:32.724Z,71.60
2023-01-23T03:37:01.570Z,71.53
2023-01-23T03:40:01.901Z,71.11
2023-01-23T03:42:33.364Z,70.71
2023-01-23T03:45:02.448Z,69.65
2023-01-23T03:47:31.846Z,68.77
2023-01-23T03:49:59.780Z,69.55
2023-01-23T03:52:27.847Z,69.47
2023-01-23T03:54:57.896Z,68.96
2023-01-23T03:57:26.119Z,69.67
2023-01-23T03:59:54.348Z,69.65
2023-01-23T04:02:25.262Z,69.65
2023-01-23T04:04:53.842Z,69.14
2023-01-23T04:07:22.012Z,68.85
2023-01-23T04:09:50.157Z,68.59
2023-01-23T04:12:18.592Z,68.64
2023-01-23T04:14:48.930Z,67.84
2023-01-23T04:17:17.088Z,66.58
2023-01-23T04:19:45.264Z,66.08
2023-01-23T04:22:14.493Z,67.06
2023-01-23T04:24:46.996Z,67.87
2023-01-23T04:27:14.969Z,68.26
2023-01-23T04:29:43.210Z,68.23
2023-01-23T04:32:11.242Z,67.55
2023-01-23T04:34:44.123Z,67.28
2023-01-23T04:37:12.194Z,67.83
2023-01-23T04:39:40.413Z,67.37
2023-01-23T04:42:08.497Z,66.52
2023-01-23T04:44:59.252Z,65.33
2023-01-23T04:47:46.051Z,67.24
2023-01-23T04:50:15.558Z,68.16
2023-01-23T04:52:45.594Z,67.56
2023-01-23T04:55:14.153Z,67.47
2023-01-23T04:57:42.349Z,67.50
2023-01-23T05:00:22.181Z,67.09
2023-01-23T05:02:51.358Z,67.27
2023-01-23T05:05:22.633Z,68.08
2023-01-23T05:07:52.997Z,68.77
2023-01-23T05:10:21.146Z,68.50
2023-01-23T05:12:49.997Z,68.70
2023-01-23T05:15:21.765Z,69.49
2023-01-23T05:17:51.239Z,68.98
2023-01-23T05:20:20.755Z,67.92
2023-01-23T05:22:54.849Z,68.39
2023-01-23T05:25:29.923Z,70.27
2023-01-23T05:27:59.953Z,70.74
2023-01-23T05:30:28.430Z,70.93
2023-01-23T05:33:06.723Z,70.33
2023-01-23T05:35:35.090Z,68.80
2023-01-23T05:38:03.368Z,69.67
2023-01-23T05:40:32.810Z,70.10
2023-01-23T05:43:23.102Z,70.25
2023-01-23T05:46:18.321Z,70.75
2023-01-23T05:48:50.844Z,72.09
2023-01-23T05:51:21.201Z,72.09
2023-01-23T05:53:49.595Z,71.83
2023-01-23T05:56:18.269Z,70.77
2023-01-23T05:59:05.485Z,71.34
2023-01-23T06:02:05.777Z,71.26
2023-01-23T06:04:54.237Z,70.88
2023-01-23T06:07:26.814Z,69.78
2023-01-23T06:09:57.528Z,70.71
2023-01-23T06:12:26.137Z,70.95
2023-01-23T06:14:54.213Z,72.64
2023-01-23T06:17:22.115Z,71.53
2023-01-23T06:19:50.190Z,71.33
2023-01-23T06:22:18.499Z,69.91
2023-01-23T06:25:07.253Z,69.53
2023-01-23T06:27:35.619Z,69.33
2023-01-23T06:30:06.465Z,68.73
2023-01-23T06:32:37.827Z,68.54
2023-01-23T06:35:07.008Z,66.77
2023-01-23T06:37:38.379Z,67.61
2023-01-23T06:40:07.177Z,68.53
2023-01-23T06:42:35.709Z,68.64
2023-01-23T06:45:04.002Z,67.85
2023-01-23T06:47:32.339Z,66.12
2023-01-23T06:50:02.633Z,66.14
2023-01-23T06:52:31.972Z,65.26
2023-01-23T06:55:00.167Z,64.88
2023-01-23T06:57:28.335Z,63.75
2023-01-23T06:59:56.488Z,60.85
2023-01-23T07:02:25.553Z,58.89
2023-01-23T07:04:54.199Z,58.20
2023-01-23T07:07:22.386Z,55.55
2023-01-23T07:09:51.218Z,55.00
2023-01-23T07:12:21.492Z,54.61
2023-01-23T07:14:50.686Z,51.88
2023-01-23T07:17:34.317Z,50.44
2023-01-23T07:20:02.591Z,49.32
2023-01-23T07:22:30.702Z,47.57
2023-01-23T07:24:58.613Z,45.91
2023-01-23T07:27:27.197Z,45.36
2023-01-23T07:29:55.329Z,44.70
2023-01-23T07:32:23.350Z,43.62
2023-01-23T07:34:53.282Z,43.29
2023-01-23T07:37:21.428Z,42.66
2023-01-23T07:39:50.647Z,42.93
2023-01-23T07:42:18.631Z,42.51
2023-01-23T07:44:46.690Z,42.40
2023-01-23T07:47:14.941Z,43.56
2023-01-23T07:49:43.021Z,44.99
2023-01-23T07:52:11.183Z,47.72
2023-01-23T07:54:39.151Z,50.68
2023-01-23T07:57:07.108Z,51.05
2023-01-23T07:59:35.299Z,50.84
2023-01-23T08:02:03.202Z,51.22
2023-01-23T08:04:31.447Z,51.57
2023-01-23T08:06:59.474Z,52.58
2023-01-23T08:09:27.438Z,53.48
2023-01-23T08:11:56.046Z,54.38
2023-01-23T08:14:24.488Z,54.87
2023-01-23T08:16:53.407Z,56.25
2023-01-23T08:19:21.508Z,57.08
2023-01-23T08:21:49.776Z,56.86
2023-01-23T08:24:17.720Z,56.84
2023-01-23T08:26:46.132Z,56.44
2023-01-23T08:29:14.503Z,56.71
2023-01-23T08:31:42.595Z,57.55
2023-01-23T08:34:10.946Z,58.64
2023-01-23T08:36:38.913Z,58.52
2023-01-23T08:39:06.982Z,57.95
2023-01-23T08:41:34.890Z,57.84
2023-01-23T08:44:04.161Z,57.51
2023-01-23T08:46:32.218Z,57.03
2023-01-23T08:49:00.150Z,56.39
2023-01-23T08:51:28.205Z,56.30
2023-01-23T08:53:57.045Z,56.06
2023-01-23T08:56:25.146Z,55.49
2023-01-23T08:58:53.627Z,55.30
2023-01-23T09:01:23.082Z,54.64
2023-01-23T09:03:51.591Z,53.91
2023-01-23T09:06:20.755Z,52.40
2023-01-23T09:08:48.768Z,52.47
2023-01-23T09:11:17.437Z,52.87
2023-01-23T09:13:48.688Z,52.87
2023-01-23T09:16:17.318Z,52.07
2023-01-23T09:18:45.362Z,52.30
2023-01-23T09:21:15.856Z,51.54
2023-01-23T09:23:44.283Z,51.32
2023-01-23T09:26:13.709Z,51.65
2023-01-23T09:28:42.979Z,51.44
2023-01-23T09:31:12.554Z,51.90
2023-01-23T09:33:41.406Z,50.87
2023-01-23T09:36:10.160Z,51.45
2023-01-23T09:38:38.284Z,52.57
2023-01-23T09:41:11.734Z,52.90
2023-01-23T09:43:43.143Z,52.73
2023-01-23T09:46:11.211Z,52.87
2023-01-23T09:48:45.200Z,52.97
2023-01-23T09:51:33.325Z,52.35
2023-01-23T09:54:06.048Z,52.44
2023-01-23T09:56:38.634Z,52.33
2023-01-23T09:59:06.818Z,51.85
2023-01-23T10:01:34.792Z,51.92
2023-01-23T10:04:03.668Z,51.68
2023-01-23T10:06:33.873Z,51.40
2023-01-23T10:09:13.948Z,50.98
2023-01-23T10:11:45.076Z,50.76
2023-01-23T10:14:17.221Z,51.20
2023-01-23T10:17:06.489Z,51.38
2023-01-23T10:19:47.289Z,51.87
2023-01-23T10:22:27.331Z,51.37
2023-01-23T10:24:56.132Z,51.08
2023-01-23T10:27:26.593Z,50.44
2023-01-23T10:30:18.308Z,50.94
2023-01-23T10:32:52.571Z,50.79
2023-01-23T10:35:24.965Z,50.44
2023-01-23T10:38:12.389Z,50.31
2023-01-23T10:40:59.405Z,49.95
2023-01-23T10:43:27.632Z,49.75
2023-01-23T10:45:55.665Z,49.73
2023-01-23T10:48:27.968Z,49.84
2023-01-23T10:50:56.162Z,49.16
2023-01-23T10:53:25.381Z,49.04
2023-01-23T10:56:00.837Z,48.87
2023-01-23T10:58:41.083Z,48.28
2023-01-23T11:01:26.633Z,47.93
2023-01-23T11:03:54.886Z,47.83
2023-01-23T11:06:26.295Z,46.82
2023-01-23T11:09:01.074Z,47.31
2023-01-23T11:11:30.829Z,46.95
2023-01-23T11:14:09.044Z,46.59
2023-01-23T11:16:37.186Z,48.99
2023-01-23T11:19:08.520Z,49.07
2023-01-23T11:21:37.907Z,49.25
2023-01-23T11:24:09.208Z,49.19
2023-01-23T11:26:38.835Z,48.38
2023-01-23T11:29:20.095Z,46.88
2023-01-23T11:31:50.490Z,46.99
2023-01-23T11:34:21.564Z,47.36
2023-01-23T11:36:56.737Z,48.63
2023-01-23T11:39:43.710Z,47.04
2023-01-23T11:42:13.111Z,45.93
2023-01-23T11:44:46.421Z,46.27
2023-01-23T11:47:30.100Z,45.82
2023-01-23T11:49:58.015Z,47.79
2023-01-23T11:52:38.366Z,47.63
2023-01-23T11:55:13.418Z,48.20
2023-01-23T11:57:44.445Z,48.80
2023-01-23T12:00:12.356Z,49.98
2023-01-23T12:02:49.312Z,49.82
2023-01-23T12:05:27.768Z,49.61
2023-01-23T12:07:58.741Z,50.21
2023-01-23T12:10:30.849Z,50.75
2023-01-23T12:13:21.500Z,49.97
2023-01-23T12:15:52.523Z,49.18
2023-01-23T12:18:40.485Z,49.02
2023-01-23T12:21:14.111Z,48.82
2023-01-23T12:23:42.711Z,48.25
2023-01-23T12:26:10.838Z,47.94
2023-01-23T12:28:41.828Z,47.40
2023-01-23T12:31:28.532Z,46.85
2023-01-23T12:34:02.713Z,46.85
2023-01-23T12:36:44.133Z,46.59
2023-01-23T12:39:36.044Z,46.42
2023-01-23T12:42:08.901Z,48.09
2023-01-23T12:44:41.479Z,47.27
2023-01-23T12:47:12.942Z,46.24
2023-01-23T12:49:40.806Z,46.19
2023-01-23T12:52:13.773Z,46.69
2023-01-23T12:54:43.715Z,47.35
2023-01-23T12:57:12.888Z,46.00
2023-01-23T12:59:44.029Z,46.14
2023-01-23T13:02:35.037Z,46.28
2023-01-23T13:05:26.368Z,46.04
2023-01-23T13:07:54.389Z,46.63
2023-01-23T13:10:51.343Z,47.72
2023-01-23T13:13:20.531Z,47.60
2023-01-23T13:16:12.800Z,48.01
2023-01-23T13:18:59.832Z,48.89
2023-01-23T13:21:46.800Z,49.28
2023-01-23T13:24:51.022Z,48.81
2023-01-23T13:27:37.905Z,48.88
2023-01-23T13:30:31.888Z,49.60
2023-01-23T13:33:05.973Z,49.16
2023-01-23T13:35:40.323Z,49.31
2023-01-23T13:38:21.101Z,49.36
2023-01-23T13:41:07.452Z,49.85
2023-01-23T13:43:44.329Z,49.79
2023-01-23T13:46:31.547Z,49.22
2023-01-23T14:21:59.559Z,51.35
2023-01-23T14:24:29.551Z,50.61
2023-01-23T14:27:07.293Z,51.02
2023-01-23T14:29:34.465Z,50.39
2023-01-23T14:32:02.672Z,50.58
2023-01-23T14:34:38.628Z,50.77
2023-01-23T14:37:10.665Z,51.05
2023-01-23T14:39:40.956Z,51.75
2023-01-23T14:42:23.319Z,50.89
2023-01-23T14:44:52.275Z,50.16
2023-01-23T14:47:32.879Z,50.53
2023-01-23T14:50:02.821Z,51.12
2023-01-23T14:52:31.525Z,52.04
2023-01-23T14:55:07.886Z,51.66
2023-01-23T14:57:37.762Z,51.93
2023-01-23T15:00:06.233Z,52.27
2023-01-23T15:02:35.865Z,52.07
2023-01-23T15:05:13.052Z,52.74
2023-01-23T15:07:46.813Z,52.70
2023-01-23T15:10:19.713Z,52.41
2023-01-23T15:12:49.235Z,51.97
2023-01-23T15:15:18.621Z,51.88
2023-01-23T15:17:47.188Z,52.16
2023-01-23T15:20:36.784Z,52.22
2023-01-23T15:23:35.056Z,52.94
2023-01-23T15:26:15.932Z,52.86
2023-01-23T15:28:49.489Z,52.97
2023-01-23T15:31:36.296Z,53.30
2023-01-23T15:34:10.645Z,52.72
2023-01-23T15:36:38.917Z,52.57
2023-01-23T15:39:15.426Z,52.74
2023-01-23T15:41:53.593Z,52.99
2023-01-23T15:44:22.343Z,52.96
2023-01-23T15:46:50.491Z,53.99
2023-01-23T15:49:25.255Z,53.81
2023-01-23T15:51:58.022Z,53.85
2023-01-23T15:54:33.619Z,53.79
2023-01-23T15:57:09.253Z,53.76
2023-01-23T15:59:37.645Z,53.99
2023-01-23T16:02:29.197Z,54.69
2023-01-23T16:04:59.286Z,55.45
2023-01-23T16:07:31.451Z,56.68
2023-01-23T16:09:59.619Z,56.89
2023-01-23T16:12:29.076Z,57.30
2023-01-23T16:14:57.521Z,59.23
2023-01-23T16:17:25.645Z,59.74
2023-01-23T16:19:54.543Z,59.87
2023-01-23T16:22:25.294Z,59.37
2023-01-23T16:24:53.629Z,59.72
2023-01-23T16:27:27.659Z,60.90
2023-01-23T16:29:56.065Z,61.61
2023-01-23T16:32:25.372Z,61.59
2023-01-23T16:34:53.440Z,61.99
2023-01-23T16:37:21.496Z,61.94
2023-01-23T16:39:49.841Z,62.20
2023-01-23T16:42:20.307Z,62.39
2023-01-23T16:44:48.918Z,61.93
2023-01-23T16:47:17.286Z,61.77
2023-01-23T16:49:53.958Z,61.43
2023-01-23T16:52:24.233Z,60.28
2023-01-23T16:54:53.569Z,62.13
2023-01-23T16:57:22.200Z,62.64
2023-01-23T16:59:50.582Z,62.93
2023-01-23T17:02:23.400Z,62.71
2023-01-23T17:04:51.784Z,62.12
2023-01-23T17:07:20.266Z,62.97
2023-01-23T17:09:49.384Z,63.00
2023-01-23T17:12:27.806Z,64.54
2023-01-23T17:14:56.482Z,64.55
2023-01-23T17:17:45.508Z,64.22
2023-01-23T17:20:14.094Z,63.37
2023-01-23T17:22:42.934Z,63.12
2023-01-23T17:25:15.762Z,61.70
2023-01-23T17:27:45.555Z,63.11
2023-01-23T17:30:20.212Z,62.43
2023-01-23T17:32:56.015Z,62.40
2023-01-23T17:35:34.465Z,61.59
2023-01-23T17:38:03.124Z,60.85
2023-01-23T17:40:31.471Z,59.17
2023-01-23T17:42:59.708Z,57.37
2023-01-23T17:45:28.294Z,56.62
2023-01-23T17:47:56.457Z,56.01
2023-01-23T17:50:25.697Z,55.54
2023-01-23T17:52:54.433Z,54.57
2023-01-23T17:55:24.283Z,55.54
2023-01-23T17:57:52.332Z,55.98
2023-01-23T18:00:20.787Z,55.95
2023-01-23T18:02:52.352Z,55.47
2023-01-23T18:05:20.867Z,54.89
2023-01-23T18:07:54.083Z,54.67
2023-01-23T18:10:25.596Z,53.97
2023-01-23T18:13:00.222Z,53.50
2023-01-23T18:15:31.886Z,55.86
2023-01-23T18:17:59.821Z,57.83
2023-01-23T18:20:28.628Z,59.20
2023-01-23T18:22:57.089Z,60.98
2023-01-23T18:25:28.447Z,58.98
2023-01-23T18:28:01.224Z,58.32
2023-01-23T18:30:35.525Z,56.71
2023-01-23T18:33:06.797Z,57.08
2023-01-23T18:35:53.707Z,56.96
2023-01-23T18:38:31.385Z,58.43
2023-01-23T18:41:11.435Z,63.03
2023-01-23T18:43:43.712Z,63.58
2023-01-23T18:46:16.495Z,64.95
2023-01-23T18:48:45.594Z,66.58
2023-01-23T18:51:19.490Z,65.34
2023-01-23T18:53:59.422Z,63.65
2023-01-23T18:56:30.370Z,62.01
2023-01-23T18:59:12.243Z,59.30
2023-01-23T19:01:40.836Z,57.59
2023-01-23T19:04:13.319Z,57.79
2023-01-23T19:06:41.780Z,55.24
2023-01-23T19:09:20.015Z,55.57
2023-01-23T19:12:03.975Z,56.42
2023-01-23T19:14:33.060Z,54.75
2023-01-23T19:17:08.530Z,54.08
2023-01-23T19:19:40.979Z,54.90
2023-01-23T19:22:11.802Z,56.04
2023-01-23T19:24:40.180Z,55.93
2023-01-23T19:27:18.088Z,55.99
2023-01-23T19:29:46.185Z,56.22
2023-01-23T19:32:14.429Z,56.22
2023-01-23T19:34:45.333Z,55.02
2023-01-23T19:37:14.890Z,54.41
2023-01-23T19:39:43.047Z,53.39
2023-01-23T19:42:14.895Z,55.23
2023-01-23T19:44:44.603Z,56.41
2023-01-23T19:47:12.674Z,55.55
2023-01-23T19:49:40.778Z,55.65
2023-01-23T19:52:12.217Z,55.00
2023-01-23T19:54:40.391Z,57.40
2023-01-23T19:57:08.443Z,58.62
2023-01-23T19:59:36.332Z,58.01
2023-01-23T20:02:04.401Z,57.88
2023-01-23T20:04:32.442Z,59.55
2023-01-23T20:07:00.457Z,61.27
2023-01-23T20:09:29.105Z,63.66
2023-01-23T20:11:58.044Z,65.24
2023-01-23T20:14:27.428Z,65.61
2023-01-23T20:16:56.116Z,65.18
2023-01-23T20:19:24.169Z,65.17
2023-01-23T20:21:52.116Z,65.02
2023-01-23T20:24:20.229Z,64.35
2023-01-23T20:26:48.382Z,64.54
2023-01-23T20:29:16.529Z,64.52
2023-01-23T20:31:44.824Z,65.20
2023-01-23T20:34:12.951Z,64.75
2023-01-23T20:36:41.042Z,64.78
2023-01-23T20:39:10.979Z,63.72
2023-01-23T20:41:39.464Z,63.17
2023-01-23T20:44:07.745Z,63.85
2023-01-23T20:46:36.010Z,63.19
2023-01-23T20:49:03.954Z,63.86
2023-01-23T20:51:31.851Z,64.47
2023-01-23T20:54:00.310Z,62.55
2023-01-23T20:56:28.384Z,62.34
2023-01-23T20:59:15.482Z,64.96
2023-01-23T21:02:02.529Z,64.73
2023-01-23T21:04:32.519Z,65.36
2023-01-23T21:07:01.217Z,62.91
2023-01-23T21:09:29.457Z,60.63
2023-01-23T21:11:58.841Z,60.60
2023-01-23T21:14:27.712Z,60.83
2023-01-23T21:16:55.958Z,59.49
2023-01-23T21:19:23.920Z,59.62
2023-01-23T21:22:03.856Z,60.66
2023-01-23T21:24:37.868Z,61.45
2023-01-23T21:27:06.405Z,61.59
2023-01-23T21:29:34.685Z,59.05
2023-01-23T21:32:02.808Z,59.96
2023-01-23T21:34:31.046Z,58.32
2023-01-23T21:36:59.065Z,57.78
2023-01-23T21:39:27.015Z,58.68
2023-01-23T21:41:55.006Z,57.85
2023-01-23T21:44:22.989Z,59.33
2023-01-23T21:46:50.961Z,59.62
2023-01-23T21:49:20.124Z,60.93
2023-01-23T21:51:48.387Z,60.99
2023-01-23T21:54:16.448Z,62.56
2023-01-23T21:56:44.453Z,63.11
2023-01-23T21:59:12.799Z,62.41
2023-01-23T22:01:44.706Z,63.75
2023-01-23T22:04:13.626Z,61.59
2023-01-23T22:06:42.534Z,61.24
2023-01-23T22:09:14.032Z,62.74
2023-01-23T22:11:41.964Z,63.89
2023-01-23T22:14:09.893Z,64.69
2023-01-23T22:16:48.546Z,63.74
2023-01-23T22:19:18.869Z,64.36
2023-01-23T22:21:47.085Z,64.23
2023-01-23T22:24:15.391Z,64.10
2023-01-23T22:26:43.793Z,63.55
2023-01-23T22:29:12.709Z,62.68
2023-01-23T22:31:41.131Z,62.94
2023-01-23T22:34:09.705Z,63.30
2023-01-23T22:36:37.655Z,62.30
2023-01-23T22:39:05.679Z,62.60
2023-01-23T22:41:33.629Z,64.02
2023-01-23T22:44:01.829Z,64.47
2023-01-23T22:46:32.162Z,64.82
2023-01-23T22:49:00.525Z,63.89
2023-01-23T22:51:29.313Z,63.49
2023-01-23T22:53:58.308Z,63.91
2023-01-23T22:56:27.166Z,63.96
2023-01-23T22:58:55.930Z,63.56
2023-01-23T23:01:25.029Z,62.90
2023-01-23T23:03:53.696Z,62.94
2023-01-23T23:06:21.936Z,62.89
2023-01-23T23:08:49.870Z,63.12
2023-01-23T23:11:19.581Z,64.55
2023-01-23T23:13:47.950Z,64.05
2023-01-23T23:16:18.008Z,64.29
2023-01-23T23:18:48.053Z,63.65
2023-01-23T23:21:17.888Z,62.42
2023-01-23T23:23:46.681Z,62.28
2023-01-23T23:26:14.970Z,62.33
2023-01-23T23:28:43.509Z,64.20
2023-01-23T23:31:11.641Z,65.17
2023-01-23T23:33:39.824Z,65.06
2023-01-23T23:36:08.084Z,65.37
2023-01-23T23:38:36.464Z,65.07
2023-01-23T23:41:05.620Z,66.02
2023-01-23T23:43:33.938Z,65.75
2023-01-23T23:46:03.929Z,64.07
2023-01-23T23:48:32.756Z,64.97
2023-01-23T23:51:01.521Z,62.47
2023-01-23T23:53:29.700Z,63.63
2023-01-23T23:55:57.624Z,62.85
2023-01-23T23:58:25.716Z,61.73
